sensor_id;sensor_type;location;lat;lon;timestamp;P1;P2;P0
45351;PMS7003;31086;51.702;-1.106;2022-09-03T00:01:32;33;31;
45351;PMS7003;31086;51.702;-1.106;2022-09-03T00:04:04;31;28;
45351;PMS7003;31086;51.702;-1.106;2022-09-03T00:06:39;32;30;
45351;PMS7003;31086;51.702;-1.106;2022-09-03T00:09:11;37;33;
45351;PMS7003;31086;51.702;-1.106;2022-09-03T00:11:45;28;26;
45351;PMS7003;31086;51.702;-1.106;2022-09-03T00:14:19;27;24;
45351;PMS7003;31086;51.702;-1.106;2022-09-03T00:16:51;31;31;
45351;PMS7003;31086;51.702;-1.106;2022-09-03T00:19:21;32;28;
45351;PMS7003;31086;51.702;-1.106;2022-09-03T00:21:53;28;26;
45351;PMS7003;31086;51.702;-1.106;2022-09-03T00:24:24;30;28;
45351;PMS7003;31086;51.702;-1.106;2022-09-03T00:26:56;28;25;
45351;PMS7003;31086;51.702;-1.106;2022-09-03T00:29:32;34;32;
45351;PMS7003;31086;51.702;-1.106;2022-09-03T00:32:05;32;31;
45351;PMS7003;31086;51.702;-1.106;2022-09-03T00:34:39;34;32;
45351;PMS7003;31086;51.702;-1.106;2022-09-03T00:37:11;30;29;
45351;PMS7003;31086;51.702;-1.106;2022-09-03T00:39:38;30;28;
45351;PMS7003;31086;51.702;-1.106;2022-09-03T00:42:10;31;29;
45351;PMS7003;31086;51.702;-1.106;2022-09-03T00:44:54;33;33;
45351;PMS7003;31086;51.702;-1.106;2022-09-03T00:47:33;29;29;
45351;PMS7003;31086;51.702;-1.106;2022-09-03T00:50:13;32;32;
45351;PMS7003;31086;51.702;-1.106;2022-09-03T00:52:48;34;31;
45351;PMS7003;31086;51.702;-1.106;2022-09-03T00:55:30;32;30;
45351;PMS7003;31086;51.702;-1.106;2022-09-03T00:58:09;34;32;
45351;PMS7003;31086;51.702;-1.106;2022-09-03T01:00:46;40;35;
45351;PMS7003;31086;51.702;-1.106;2022-09-03T01:03:16;34;31;
45351;PMS7003;31086;51.702;-1.106;2022-09-03T01:05:53;35;32;
45351;PMS7003;31086;51.702;-1.106;2022-09-03T01:08:36;32;30;
45351;PMS7003;31086;51.702;-1.106;2022-09-03T01:11:26;32;30;
45351;PMS7003;31086;51.702;-1.106;2022-09-03T01:14:05;33;29;
45351;PMS7003;31086;51.702;-1.106;2022-09-03T01:16:43;34;32;
45351;PMS7003;31086;51.702;-1.106;2022-09-03T01:19:22;32;32;
45351;PMS7003;31086;51.702;-1.106;2022-09-03T01:22:12;33;30;
45351;PMS7003;31086;51.702;-1.106;2022-09-03T01:25:05;33;29;
45351;PMS7003;31086;51.702;-1.106;2022-09-03T01:27:43;35;33;
45351;PMS7003;31086;51.702;-1.106;2022-09-03T01:30:16;30;30;
45351;PMS7003;31086;51.702;-1.106;2022-09-03T01:32:47;36;34;
45351;PMS7003;31086;51.702;-1.106;2022-09-03T01:35:26;39;35;
45351;PMS7003;31086;51.702;-1.106;2022-09-03T01:38:05;37;34;
45351;PMS7003;31086;51.702;-1.106;2022-09-03T01:40:45;41;37;
45351;PMS7003;31086;51.702;-1.106;2022-09-03T01:43:24;33;33;
45351;PMS7003;31086;51.702;-1.106;2022-09-03T01:46:06;37;36;
45351;PMS7003;31086;51.702;-1.106;2022-09-03T01:48:39;37;36;
45351;PMS7003;31086;51.702;-1.106;2022-09-03T01:51:11;38;38;
45351;PMS7003;31086;51.702;-1.106;2022-09-03T01:53:53;36;35;
45351;PMS7003;31086;51.702;-1.106;2022-09-03T01:56:44;38;34;
45351;PMS7003;31086;51.702;-1.106;2022-09-03T01:59:27;41;38;
45351;PMS7003;31086;51.702;-1.106;2022-09-03T02:01:59;35;32;
45351;PMS7003;31086;51.702;-1.106;2022-09-03T02:04:30;34;34;
45351;PMS7003;31086;51.702;-1.106;2022-09-03T02:06:58;43;37;
45351;PMS7003;31086;51.702;-1.106;2022-09-03T02:09:27;39;36;
45351;PMS7003;31086;51.702;-1.106;2022-09-03T02:11:55;37;34;
45351;PMS7003;31086;51.702;-1.106;2022-09-03T02:14:28;33;30;
45351;PMS7003;31086;51.702;-1.106;2022-09-03T02:16:57;39;36;
45351;PMS7003;31086;51.702;-1.106;2022-09-03T02:19:26;40;36;
45351;PMS7003;31086;51.702;-1.106;2022-09-03T02:21:55;43;41;
45351;PMS7003;31086;51.702;-1.106;2022-09-03T02:24:24;41;39;
45351;PMS7003;31086;51.702;-1.106;2022-09-03T02:26:53;36;36;
45351;PMS7003;31086;51.702;-1.106;2022-09-03T02:29:20;37;36;
45351;PMS7003;31086;51.702;-1.106;2022-09-03T02:31:48;38;36;
45351;PMS7003;31086;51.702;-1.106;2022-09-03T02:34:16;36;35;
45351;PMS7003;31086;51.702;-1.106;2022-09-03T02:36:43;40;38;
45351;PMS7003;31086;51.702;-1.106;2022-09-03T02:39:13;43;39;
45351;PMS7003;31086;51.702;-1.106;2022-09-03T02:41:41;39;36;
45351;PMS7003;31086;51.702;-1.106;2022-09-03T02:44:10;44;38;
45351;PMS7003;31086;51.702;-1.106;2022-09-03T02:46:42;46;39;
45351;PMS7003;31086;51.702;-1.106;2022-09-03T02:49:12;43;40;
45351;PMS7003;31086;51.702;-1.106;2022-09-03T02:51:41;44;41;
45351;PMS7003;31086;51.702;-1.106;2022-09-03T02:54:09;46;43;
45351;PMS7003;31086;51.702;-1.106;2022-09-03T02:56:38;43;40;
45351;PMS7003;31086;51.702;-1.106;2022-09-03T02:59:06;40;38;
45351;PMS7003;31086;51.702;-1.106;2022-09-03T03:01:34;49;47;
45351;PMS7003;31086;51.702;-1.106;2022-09-03T03:04:02;45;45;
45351;PMS7003;31086;51.702;-1.106;2022-09-03T03:06:29;50;49;
45351;PMS7003;31086;51.702;-1.106;2022-09-03T03:08:56;48;46;
45351;PMS7003;31086;51.702;-1.106;2022-09-03T03:11:24;55;52;
45351;PMS7003;31086;51.702;-1.106;2022-09-03T03:13:52;47;44;
45351;PMS7003;31086;51.702;-1.106;2022-09-03T03:16:19;38;38;
45351;PMS7003;31086;51.702;-1.106;2022-09-03T03:18:46;50;46;
45351;PMS7003;31086;51.702;-1.106;2022-09-03T03:21:15;48;47;
45351;PMS7003;31086;51.702;-1.106;2022-09-03T03:23:44;51;48;
45351;PMS7003;31086;51.702;-1.106;2022-09-03T03:26:12;46;44;
45351;PMS7003;31086;51.702;-1.106;2022-09-03T03:28:40;53;48;
45351;PMS7003;31086;51.702;-1.106;2022-09-03T03:31:08;54;51;
45351;PMS7003;31086;51.702;-1.106;2022-09-03T03:33:37;54;51;
45351;PMS7003;31086;51.702;-1.106;2022-09-03T03:36:05;63;57;
45351;PMS7003;31086;51.702;-1.106;2022-09-03T03:38:35;57;53;
45351;PMS7003;31086;51.702;-1.106;2022-09-03T03:41:06;48;47;
45351;PMS7003;31086;51.702;-1.106;2022-09-03T03:43:34;50;49;
45351;PMS7003;31086;51.702;-1.106;2022-09-03T03:46:02;51;50;
45351;PMS7003;31086;51.702;-1.106;2022-09-03T03:48:29;55;52;
45351;PMS7003;31086;51.702;-1.106;2022-09-03T03:50:59;52;51;
45351;PMS7003;31086;51.702;-1.106;2022-09-03T03:53:27;59;57;
45351;PMS7003;31086;51.702;-1.106;2022-09-03T03:55:55;52;50;
45351;PMS7003;31086;51.702;-1.106;2022-09-03T03:58:23;55;53;
45351;PMS7003;31086;51.702;-1.106;2022-09-03T04:00:51;55;51;
45351;PMS7003;31086;51.702;-1.106;2022-09-03T04:03:18;64;58;
45351;PMS7003;31086;51.702;-1.106;2022-09-03T04:05:53;61;57;
45351;PMS7003;31086;51.702;-1.106;2022-09-03T04:08:21;64;57;
45351;PMS7003;31086;51.702;-1.106;2022-09-03T04:10:49;66;62;
45351;PMS7003;31086;51.702;-1.106;2022-09-03T04:13:16;67;62;
45351;PMS7003;31086;51.702;-1.106;2022-09-03T04:15:43;59;57;
45351;PMS7003;31086;51.702;-1.106;2022-09-03T04:18:10;69;65;
45351;PMS7003;31086;51.702;-1.106;2022-09-03T04:20:37;60;58;
45351;PMS7003;31086;51.702;-1.106;2022-09-03T04:23:04;59;56;
45351;PMS7003;31086;51.702;-1.106;2022-09-03T04:25:32;69;63;
45351;PMS7003;31086;51.702;-1.106;2022-09-03T04:27:59;65;61;
45351;PMS7003;31086;51.702;-1.106;2022-09-03T04:30:26;63;62;
45351;PMS7003;31086;51.702;-1.106;2022-09-03T04:32:53;61;55;
45351;PMS7003;31086;51.702;-1.106;2022-09-03T04:35:20;67;61;
45351;PMS7003;31086;51.702;-1.106;2022-09-03T04:37:49;67;63;
45351;PMS7003;31086;51.702;-1.106;2022-09-03T04:40:16;71;67;
45351;PMS7003;31086;51.702;-1.106;2022-09-03T04:42:43;71;65;
45351;PMS7003;31086;51.702;-1.106;2022-09-03T04:45:11;73;70;
45351;PMS7003;31086;51.702;-1.106;2022-09-03T04:47:38;68;67;
45351;PMS7003;31086;51.702;-1.106;2022-09-03T04:50:05;69;67;
45351;PMS7003;31086;51.702;-1.106;2022-09-03T04:52:33;74;71;
45351;PMS7003;31086;51.702;-1.106;2022-09-03T04:55:00;67;65;
45351;PMS7003;31086;51.702;-1.106;2022-09-03T04:57:27;75;68;
45351;PMS7003;31086;51.702;-1.106;2022-09-03T04:59:54;77;71;
45351;PMS7003;31086;51.702;-1.106;2022-09-03T05:02:21;69;66;
45351;PMS7003;31086;51.702;-1.106;2022-09-03T05:04:48;70;67;
45351;PMS7003;31086;51.702;-1.106;2022-09-03T05:07:15;72;63;
45351;PMS7003;31086;51.702;-1.106;2022-09-03T05:09:42;58;57;
45351;PMS7003;31086;51.702;-1.106;2022-09-03T05:12:10;61;58;
45351;PMS7003;31086;51.702;-1.106;2022-09-03T05:14:37;57;51;
45351;PMS7003;31086;51.702;-1.106;2022-09-03T05:17:04;59;55;
45351;PMS7003;31086;51.702;-1.106;2022-09-03T05:19:32;67;64;
45351;PMS7003;31086;51.702;-1.106;2022-09-03T05:21:59;63;59;
45351;PMS7003;31086;51.702;-1.106;2022-09-03T05:24:26;68;64;
45351;PMS7003;31086;51.702;-1.106;2022-09-03T05:26:54;60;56;
45351;PMS7003;31086;51.702;-1.106;2022-09-03T05:29:21;69;66;
45351;PMS7003;31086;51.702;-1.106;2022-09-03T05:31:48;67;60;
45351;PMS7003;31086;51.702;-1.106;2022-09-03T05:34:16;67;65;
45351;PMS7003;31086;51.702;-1.106;2022-09-03T05:36:43;68;64;
45351;PMS7003;31086;51.702;-1.106;2022-09-03T05:39:10;63;61;
45351;PMS7003;31086;51.702;-1.106;2022-09-03T05:41:36;66;59;
45351;PMS7003;31086;51.702;-1.106;2022-09-03T05:44:04;66;59;
45351;PMS7003;31086;51.702;-1.106;2022-09-03T05:46:32;69;63;
45351;PMS7003;31086;51.702;-1.106;2022-09-03T05:49:00;58;51;
45351;PMS7003;31086;51.702;-1.106;2022-09-03T05:51:28;56;53;
45351;PMS7003;31086;51.702;-1.106;2022-09-03T05:53:57;58;56;
45351;PMS7003;31086;51.702;-1.106;2022-09-03T05:56:25;64;58;
45351;PMS7003;31086;51.702;-1.106;2022-09-03T05:58:55;57;52;
45351;PMS7003;31086;51.702;-1.106;2022-09-03T06:01:25;63;59;
45351;PMS7003;31086;51.702;-1.106;2022-09-03T06:03:54;60;59;
45351;PMS7003;31086;51.702;-1.106;2022-09-03T06:06:22;67;60;
45351;PMS7003;31086;51.702;-1.106;2022-09-03T06:08:50;60;58;
45351;PMS7003;31086;51.702;-1.106;2022-09-03T06:11:18;65;62;
45351;PMS7003;31086;51.702;-1.106;2022-09-03T06:13:45;70;65;
45351;PMS7003;31086;51.702;-1.106;2022-09-03T06:16:13;63;58;
45351;PMS7003;31086;51.702;-1.106;2022-09-03T06:18:40;63;61;
45351;PMS7003;31086;51.702;-1.106;2022-09-03T06:21:08;59;57;
45351;PMS7003;31086;51.702;-1.106;2022-09-03T06:23:35;71;62;
45351;PMS7003;31086;51.702;-1.106;2022-09-03T06:26:04;62;60;
45351;PMS7003;31086;51.702;-1.106;2022-09-03T06:28:33;67;62;
45351;PMS7003;31086;51.702;-1.106;2022-09-03T06:31:02;62;59;
45351;PMS7003;31086;51.702;-1.106;2022-09-03T06:33:30;65;60;
45351;PMS7003;31086;51.702;-1.106;2022-09-03T06:36:00;62;59;
45351;PMS7003;31086;51.702;-1.106;2022-09-03T06:38:30;69;66;
45351;PMS7003;31086;51.702;-1.106;2022-09-03T06:40:59;67;64;
45351;PMS7003;31086;51.702;-1.106;2022-09-03T06:43:28;67;57;
45351;PMS7003;31086;51.702;-1.106;2022-09-03T06:45:57;77;70;
45351;PMS7003;31086;51.702;-1.106;2022-09-03T06:48:26;74;68;
45351;PMS7003;31086;51.702;-1.106;2022-09-03T06:50:56;76;69;
45351;PMS7003;31086;51.702;-1.106;2022-09-03T06:53:26;70;66;
45351;PMS7003;31086;51.702;-1.106;2022-09-03T06:55:55;64;60;
45351;PMS7003;31086;51.702;-1.106;2022-09-03T06:58:24;67;61;
45351;PMS7003;31086;51.702;-1.106;2022-09-03T07:00:59;56;53;
45351;PMS7003;31086;51.702;-1.106;2022-09-03T07:03:28;65;61;
45351;PMS7003;31086;51.702;-1.106;2022-09-03T07:05:59;57;56;
45351;PMS7003;31086;51.702;-1.106;2022-09-03T07:08:26;63;60;
45351;PMS7003;31086;51.702;-1.106;2022-09-03T07:10:54;61;58;
45351;PMS7003;31086;51.702;-1.106;2022-09-03T07:13:22;58;54;
45351;PMS7003;31086;51.702;-1.106;2022-09-03T07:15:56;58;55;
45351;PMS7003;31086;51.702;-1.106;2022-09-03T07:18:25;56;54;
45351;PMS7003;31086;51.702;-1.106;2022-09-03T07:20:56;68;65;
45351;PMS7003;31086;51.702;-1.106;2022-09-03T07:23:25;65;59;
45351;PMS7003;31086;51.702;-1.106;2022-09-03T07:25:53;62;56;
45351;PMS7003;31086;51.702;-1.106;2022-09-03T07:28:20;61;58;
45351;PMS7003;31086;51.702;-1.106;2022-09-03T07:30:48;61;55;
45351;PMS7003;31086;51.702;-1.106;2022-09-03T07:33:15;65;59;
45351;PMS7003;31086;51.702;-1.106;2022-09-03T07:35:44;60;56;
45351;PMS7003;31086;51.702;-1.106;2022-09-03T07:38:15;65;62;
45351;PMS7003;31086;51.702;-1.106;2022-09-03T07:40:43;67;65;
45351;PMS7003;31086;51.702;-1.106;2022-09-03T07:43:11;66;62;
45351;PMS7003;31086;51.702;-1.106;2022-09-03T07:45:38;67;63;
45351;PMS7003;31086;51.702;-1.106;2022-09-03T07:48:05;70;66;
45351;PMS7003;31086;51.702;-1.106;2022-09-03T07:50:32;70;68;
45351;PMS7003;31086;51.702;-1.106;2022-09-03T07:52:59;70;66;
45351;PMS7003;31086;51.702;-1.106;2022-09-03T07:55:26;66;63;
45351;PMS7003;31086;51.702;-1.106;2022-09-03T07:57:54;66;65;
45351;PMS7003;31086;51.702;-1.106;2022-09-03T08:00:22;64;59;
45351;PMS7003;31086;51.702;-1.106;2022-09-03T08:02:50;69;64;
45351;PMS7003;31086;51.702;-1.106;2022-09-03T08:05:18;66;61;
45351;PMS7003;31086;51.702;-1.106;2022-09-03T08:07:45;65;60;
45351;PMS7003;31086;51.702;-1.106;2022-09-03T08:10:13;59;57;
45351;PMS7003;31086;51.702;-1.106;2022-09-03T08:12:41;56;53;
45351;PMS7003;31086;51.702;-1.106;2022-09-03T08:15:08;60;54;
45351;PMS7003;31086;51.702;-1.106;2022-09-03T08:17:35;58;55;
45351;PMS7003;31086;51.702;-1.106;2022-09-03T08:20:03;59;52;
45351;PMS7003;31086;51.702;-1.106;2022-09-03T08:22:30;55;52;
45351;PMS7003;31086;51.702;-1.106;2022-09-03T08:24:57;62;58;
45351;PMS7003;31086;51.702;-1.106;2022-09-03T08:27:24;51;47;
45351;PMS7003;31086;51.702;-1.106;2022-09-03T08:29:51;60;57;
45351;PMS7003;31086;51.702;-1.106;2022-09-03T08:32:18;62;58;
45351;PMS7003;31086;51.702;-1.106;2022-09-03T08:34:46;58;53;
45351;PMS7003;31086;51.702;-1.106;2022-09-03T08:37:13;59;58;
45351;PMS7003;31086;51.702;-1.106;2022-09-03T08:39:40;58;54;
45351;PMS7003;31086;51.702;-1.106;2022-09-03T08:42:11;47;43;
45351;PMS7003;31086;51.702;-1.106;2022-09-03T08:44:49;49;48;
45351;PMS7003;31086;51.702;-1.106;2022-09-03T08:47:20;52;48;
45351;PMS7003;31086;51.702;-1.106;2022-09-03T08:49:53;56;52;
45351;PMS7003;31086;51.702;-1.106;2022-09-03T08:52:25;47;45;
45351;PMS7003;31086;51.702;-1.106;2022-09-03T08:55:00;54;52;
45351;PMS7003;31086;51.702;-1.106;2022-09-03T08:57:40;45;44;
45351;PMS7003;31086;51.702;-1.106;2022-09-03T09:00:12;41;40;
45351;PMS7003;31086;51.702;-1.106;2022-09-03T09:02:43;41;40;
45351;PMS7003;31086;51.702;-1.106;2022-09-03T09:05:24;45;43;
45351;PMS7003;31086;51.702;-1.106;2022-09-03T09:07:59;49;47;
45351;PMS7003;31086;51.702;-1.106;2022-09-03T09:10:40;41;39;
45351;PMS7003;31086;51.702;-1.106;2022-09-03T09:13:13;40;37;
45351;PMS7003;31086;51.702;-1.106;2022-09-03T09:15:51;37;36;
45351;PMS7003;31086;51.702;-1.106;2022-09-03T09:18:27;38;35;
45351;PMS7003;31086;51.702;-1.106;2022-09-03T09:21:06;41;38;
45351;PMS7003;31086;51.702;-1.106;2022-09-03T09:23:39;33;31;
45351;PMS7003;31086;51.702;-1.106;2022-09-03T09:26:10;28;27;
45351;PMS7003;31086;51.702;-1.106;2022-09-03T09:28:42;29;28;
45351;PMS7003;31086;51.702;-1.106;2022-09-03T09:31:13;27;26;
45351;PMS7003;31086;51.702;-1.106;2022-09-03T09:33:41;25;24;
45351;PMS7003;31086;51.702;-1.106;2022-09-03T09:36:09;34;32;
45351;PMS7003;31086;51.702;-1.106;2022-09-03T09:38:38;30;29;
45351;PMS7003;31086;51.702;-1.106;2022-09-03T09:41:07;32;31;
45351;PMS7003;31086;51.702;-1.106;2022-09-03T09:43:36;29;27;
45351;PMS7003;31086;51.702;-1.106;2022-09-03T09:46:06;36;34;
45351;PMS7003;31086;51.702;-1.106;2022-09-03T09:48:38;27;27;
45351;PMS7003;31086;51.702;-1.106;2022-09-03T09:51:17;24;23;
45351;PMS7003;31086;51.702;-1.106;2022-09-03T09:53:47;31;27;
45351;PMS7003;31086;51.702;-1.106;2022-09-03T09:56:25;30;28;
45351;PMS7003;31086;51.702;-1.106;2022-09-03T09:59:00;28;28;
45351;PMS7003;31086;51.702;-1.106;2022-09-03T10:01:29;24;23;
45351;PMS7003;31086;51.702;-1.106;2022-09-03T10:03:57;21;19;
45351;PMS7003;31086;51.702;-1.106;2022-09-03T10:06:26;25;24;
45351;PMS7003;31086;51.702;-1.106;2022-09-03T10:09:04;24;23;
45351;PMS7003;31086;51.702;-1.106;2022-09-03T10:11:33;29;26;
45351;PMS7003;31086;51.702;-1.106;2022-09-03T10:14:01;24;23;
45351;PMS7003;31086;51.702;-1.106;2022-09-03T10:16:32;21;19;
45351;PMS7003;31086;51.702;-1.106;2022-09-03T10:19:08;24;22;
45351;PMS7003;31086;51.702;-1.106;2022-09-03T10:21:42;25;21;
45351;PMS7003;31086;51.702;-1.106;2022-09-03T10:24:22;31;28;
45351;PMS7003;31086;51.702;-1.106;2022-09-03T10:26:57;24;23;
45351;PMS7003;31086;51.702;-1.106;2022-09-03T10:29:25;29;23;
45351;PMS7003;31086;51.702;-1.106;2022-09-03T10:31:56;27;26;
45351;PMS7003;31086;51.702;-1.106;2022-09-03T10:34:31;36;33;
45351;PMS7003;31086;51.702;-1.106;2022-09-03T10:37:08;24;22;
45351;PMS7003;31086;51.702;-1.106;2022-09-03T10:39:47;24;23;
45351;PMS7003;31086;51.702;-1.106;2022-09-03T10:42:31;28;27;
45351;PMS7003;31086;51.702;-1.106;2022-09-03T10:45:07;27;26;
45351;PMS7003;31086;51.702;-1.106;2022-09-03T10:47:50;30;29;
45351;PMS7003;31086;51.702;-1.106;2022-09-03T10:50:32;28;26;
45351;PMS7003;31086;51.702;-1.106;2022-09-03T10:53:06;27;25;
45351;PMS7003;31086;51.702;-1.106;2022-09-03T10:55:46;27;27;
45351;PMS7003;31086;51.702;-1.106;2022-09-03T10:58:27;24;24;
45351;PMS7003;31086;51.702;-1.106;2022-09-03T11:01:07;26;23;
45351;PMS7003;31086;51.702;-1.106;2022-09-03T11:03:43;27;26;
45351;PMS7003;31086;51.702;-1.106;2022-09-03T11:06:16;31;28;
45351;PMS7003;31086;51.702;-1.106;2022-09-03T11:08:52;24;23;
45351;PMS7003;31086;51.702;-1.106;2022-09-03T11:11:23;27;25;
45351;PMS7003;31086;51.702;-1.106;2022-09-03T11:13:56;23;22;
45351;PMS7003;31086;51.702;-1.106;2022-09-03T11:16:30;25;24;
45351;PMS7003;31086;51.702;-1.106;2022-09-03T11:19:01;21;21;
45351;PMS7003;31086;51.702;-1.106;2022-09-03T11:21:31;28;28;
45351;PMS7003;31086;51.702;-1.106;2022-09-03T11:24:03;22;20;
45351;PMS7003;31086;51.702;-1.106;2022-09-03T11:26:35;25;25;
45351;PMS7003;31086;51.702;-1.106;2022-09-03T11:29:05;26;25;
45351;PMS7003;31086;51.702;-1.106;2022-09-03T11:31:44;27;24;
45351;PMS7003;31086;51.702;-1.106;2022-09-03T11:34:25;23;21;
45351;PMS7003;31086;51.702;-1.106;2022-09-03T11:37:28;28;27;
45351;PMS7003;31086;51.702;-1.106;2022-09-03T11:39:57;28;26;
45351;PMS7003;31086;51.702;-1.106;2022-09-03T11:42:31;25;24;
45351;PMS7003;31086;51.702;-1.106;2022-09-03T11:45:34;23;21;
45351;PMS7003;31086;51.702;-1.106;2022-09-03T11:48:15;23;20;
45351;PMS7003;31086;51.702;-1.106;2022-09-03T11:50:50;22;21;
45351;PMS7003;31086;51.702;-1.106;2022-09-03T11:53:23;25;24;
45351;PMS7003;31086;51.702;-1.106;2022-09-03T11:55:53;20;20;
45351;PMS7003;31086;51.702;-1.106;2022-09-03T11:58:23;23;22;
45351;PMS7003;31086;51.702;-1.106;2022-09-03T12:00:54;23;22;
45351;PMS7003;31086;51.702;-1.106;2022-09-03T12:03:24;22;21;
45351;PMS7003;31086;51.702;-1.106;2022-09-03T12:06:01;20;19;
45351;PMS7003;31086;51.702;-1.106;2022-09-03T12:08:45;23;21;
45351;PMS7003;31086;51.702;-1.106;2022-09-03T12:11:32;21;20;
45351;PMS7003;31086;51.702;-1.106;2022-09-03T12:14:12;18;18;
45351;PMS7003;31086;51.702;-1.106;2022-09-03T12:16:51;18;18;
45351;PMS7003;31086;51.702;-1.106;2022-09-03T12:19:27;20;19;
45351;PMS7003;31086;51.702;-1.106;2022-09-03T12:22:02;22;21;
45351;PMS7003;31086;51.702;-1.106;2022-09-03T12:24:30;20;19;
45351;PMS7003;31086;51.702;-1.106;2022-09-03T12:26:58;26;25;
45351;PMS7003;31086;51.702;-1.106;2022-09-03T12:29:26;26;25;
45351;PMS7003;31086;51.702;-1.106;2022-09-03T12:31:55;24;22;
45351;PMS7003;31086;51.702;-1.106;2022-09-03T12:34:31;23;21;
45351;PMS7003;31086;51.702;-1.106;2022-09-03T12:36:58;24;21;
45351;PMS7003;31086;51.702;-1.106;2022-09-03T12:39:25;22;20;
45351;PMS7003;31086;51.702;-1.106;2022-09-03T12:41:55;23;23;
45351;PMS7003;31086;51.702;-1.106;2022-09-03T12:44:27;26;26;
45351;PMS7003;31086;51.702;-1.106;2022-09-03T12:47:05;25;22;
45351;PMS7003;31086;51.702;-1.106;2022-09-03T12:49:36;29;28;
45351;PMS7003;31086;51.702;-1.106;2022-09-03T12:52:08;23;22;
45351;PMS7003;31086;51.702;-1.106;2022-09-03T12:54:43;26;25;
45351;PMS7003;31086;51.702;-1.106;2022-09-03T12:57:18;23;23;
45351;PMS7003;31086;51.702;-1.106;2022-09-03T12:59:49;27;25;
45351;PMS7003;31086;51.702;-1.106;2022-09-03T13:02:22;28;26;
45351;PMS7003;31086;51.702;-1.106;2022-09-03T13:04:52;23;21;
45351;PMS7003;31086;51.702;-1.106;2022-09-03T13:07:22;23;23;
45351;PMS7003;31086;51.702;-1.106;2022-09-03T13:09:54;25;24;
45351;PMS7003;31086;51.702;-1.106;2022-09-03T13:12:28;23;21;
45351;PMS7003;31086;51.702;-1.106;2022-09-03T13:15:03;20;20;
45351;PMS7003;31086;51.702;-1.106;2022-09-03T13:17:36;18;15;
45351;PMS7003;31086;51.702;-1.106;2022-09-03T13:20:28;23;18;
45351;PMS7003;31086;51.702;-1.106;2022-09-03T13:26:08;21;20;
45351;PMS7003;31086;51.702;-1.106;2022-09-03T13:28:50;16;16;
45351;PMS7003;31086;51.702;-1.106;2022-09-03T13:31:30;19;18;
45351;PMS7003;31086;51.702;-1.106;2022-09-03T13:34:03;19;19;
45351;PMS7003;31086;51.702;-1.106;2022-09-03T13:36:36;15;15;
45351;PMS7003;31086;51.702;-1.106;2022-09-03T13:39:15;21;18;
45351;PMS7003;31086;51.702;-1.106;2022-09-03T13:41:53;17;15;
45351;PMS7003;31086;51.702;-1.106;2022-09-03T13:44:29;20;17;
45351;PMS7003;31086;51.702;-1.106;2022-09-03T13:47:07;18;16;
45351;PMS7003;31086;51.702;-1.106;2022-09-03T13:49:46;18;18;
45351;PMS7003;31086;51.702;-1.106;2022-09-03T13:52:20;17;17;
45351;PMS7003;31086;51.702;-1.106;2022-09-03T13:54:53;17;16;
45351;PMS7003;31086;51.702;-1.106;2022-09-03T13:57:28;17;16;
45351;PMS7003;31086;51.702;-1.106;2022-09-03T14:00:01;5000;5000;
45351;PMS7003;31086;51.702;-1.106;2022-09-03T14:02:32;5000;5000;
45351;PMS7003;31086;51.702;-1.106;2022-09-03T14:05:10;15;15;
45351;PMS7003;31086;51.702;-1.106;2022-09-03T14:07:47;5000;5000;
45351;PMS7003;31086;51.702;-1.106;2022-09-03T14:10:26;15;15;
45351;PMS7003;31086;51.702;-1.106;2022-09-03T14:13:02;13;13;
45351;PMS7003;31086;51.702;-1.106;2022-09-03T14:15:42;16;16;
45351;PMS7003;31086;51.702;-1.106;2022-09-03T14:18:15;16;14;
45351;PMS7003;31086;51.702;-1.106;2022-09-03T14:20:58;16;15;
45351;PMS7003;31086;51.702;-1.106;2022-09-03T14:23:31;18;16;
45351;PMS7003;31086;51.702;-1.106;2022-09-03T14:26:06;20;19;
45351;PMS7003;31086;51.702;-1.106;2022-09-03T14:28:44;14;14;
45351;PMS7003;31086;51.702;-1.106;2022-09-03T14:31:15;13;13;
45351;PMS7003;31086;51.702;-1.106;2022-09-03T14:33:51;14;13;
45351;PMS7003;31086;51.702;-1.106;2022-09-03T14:36:29;13;13;
45351;PMS7003;31086;51.702;-1.106;2022-09-03T14:39:38;12;11;
45351;PMS7003;31086;51.702;-1.106;2022-09-03T14:42:23;13;13;
45351;PMS7003;31086;51.702;-1.106;2022-09-03T14:45:11;13;13;
45351;PMS7003;31086;51.702;-1.106;2022-09-03T14:47:48;14;12;
45351;PMS7003;31086;51.702;-1.106;2022-09-03T14:50:33;20;14;
45351;PMS7003;31086;51.702;-1.106;2022-09-03T14:53:14;13;13;
45351;PMS7003;31086;51.702;-1.106;2022-09-03T14:55:32;14;13;
45351;PMS7003;31086;51.702;-1.106;2022-09-03T14:58:20;13;13;
45351;PMS7003;31086;51.702;-1.106;2022-09-03T15:00:59;13;13;
45351;PMS7003;31086;51.702;-1.106;2022-09-03T15:03:38;5000;5000;
45351;PMS7003;31086;51.702;-1.106;2022-09-03T15:06:22;5008;5008;
45351;PMS7003;31086;51.702;-1.106;2022-09-03T15:08:58;5000;5000;
45351;PMS7003;31086;51.702;-1.106;2022-09-03T15:11:42;4991;4991;
45351;PMS7003;31086;51.702;-1.106;2022-09-03T15:14:18;5000;5000;
45351;PMS7003;31086;51.702;-1.106;2022-09-03T15:16:54;5000;5000;
45351;PMS7003;31086;51.702;-1.106;2022-09-03T15:19:35;5000;5000;
45351;PMS7003;31086;51.702;-1.106;2022-09-03T15:22:17;5017;5017;
45351;PMS7003;31086;51.702;-1.106;2022-09-03T15:24:57;4002;4002;
45351;PMS7003;31086;51.702;-1.106;2022-09-03T15:27:43;3006;3006;
45351;PMS7003;31086;51.702;-1.106;2022-09-03T15:30:22;1259;1259;
45351;PMS7003;31086;51.702;-1.106;2022-09-03T15:33:00;5000;5000;
45351;PMS7003;31086;51.702;-1.106;2022-09-03T15:35:38;9;9;
45351;PMS7003;31086;51.702;-1.106;2022-09-03T15:38:24;12;11;
45351;PMS7003;31086;51.702;-1.106;2022-09-03T15:41:05;11;11;
45351;PMS7003;31086;51.702;-1.106;2022-09-03T15:43:37;14;12;
45351;PMS7003;31086;51.702;-1.106;2022-09-03T15:46:06;10;10;
45351;PMS7003;31086;51.702;-1.106;2022-09-03T15:48:55;14;13;
45351;PMS7003;31086;51.702;-1.106;2022-09-03T15:51:27;15;13;
45351;PMS7003;31086;51.702;-1.106;2022-09-03T15:54:01;12;12;
45351;PMS7003;31086;51.702;-1.106;2022-09-03T15:56:37;12;10;
45351;PMS7003;31086;51.702;-1.106;2022-09-03T15:59:15;14;14;
45351;PMS7003;31086;51.702;-1.106;2022-09-03T16:01:47;15;15;
45351;PMS7003;31086;51.702;-1.106;2022-09-03T16:04:26;17;14;
45351;PMS7003;31086;51.702;-1.106;2022-09-03T16:07:08;14;14;
45351;PMS7003;31086;51.702;-1.106;2022-09-03T16:09:47;18;17;
45351;PMS7003;31086;51.702;-1.106;2022-09-03T16:12:25;18;17;
45351;PMS7003;31086;51.702;-1.106;2022-09-03T16:15:02;15;15;
45351;PMS7003;31086;51.702;-1.106;2022-09-03T16:17:32;19;18;
45351;PMS7003;31086;51.702;-1.106;2022-09-03T16:20:06;21;19;
45351;PMS7003;31086;51.702;-1.106;2022-09-03T16:22:42;15;15;
45351;PMS7003;31086;51.702;-1.106;2022-09-03T16:25:15;21;20;
45351;PMS7003;31086;51.702;-1.106;2022-09-03T16:27:50;24;22;
45351;PMS7003;31086;51.702;-1.106;2022-09-03T16:30:28;20;20;
45351;PMS7003;31086;51.702;-1.106;2022-09-03T16:33:06;20;18;
45351;PMS7003;31086;51.702;-1.106;2022-09-03T16:35:41;20;19;
45351;PMS7003;31086;51.702;-1.106;2022-09-03T16:38:21;24;22;